Hovedside
METAR-TAF:

METAR-TAF

Lufthavner :

Nanaimo, Britisk Columbia, Canada

breddegrad: 49-03N, lengdegrad: 123-52W, høyde over havet: 28 m

Gjeldene værobservasjon

Denne rapporten ble laget for 50 minutter siden, klokken 04:00 UTC
Vind 3 kt fra Sør
Temperatur 7°C
Luftfuktighet 93%
Trykk 1016 hPa
Sikt: 32.2 km
Få skyer i en høyde av 25000 ft
Grunne tåke

METAR: CYCD 220400Z 19003KT 20SM MIFG FEW250 07/06 A2999 RMK CI2 HZ LAST STFD OBS/NEXT 221300Z SLP157

Tid: 21:50 (04:50 UTC)

Varsel

Denne rapporten ble laget for 5 timer og 12 minutter siden, klokken 23:38 UTC
Varsel gyldig fra 22. klokken 00 UTC til 22. klokken 04 UTC
Vind 3 kt fra skiftende retning
Sikt: 10 km
Få skyer i en høyde av 24000 ft
Sannsynlighet 30%
fra 22. klokken 03 UTC til 22. klokken 04 UTC
Sikt: 0.8 km
Brutte skyer i en høyde av 300 ft
tåke

TAF: CYCD 212338Z 2200/2204 VRB03KT P6SM FEW240 PROB30 2203/2204 1/2SM FG BKN003 RMK NXT FCST WILL BE ISSUED AT 221445Z

Værobservasjoner og værvarsel for over 4000 flyplasser (METAR- og TAF-rapporter).

Tilgjengelige stasjoner er representert av de røde og gule prikkene på kartet.

Hold musepekeren over prikken for å se navnet på stasjonen.

Klikk så for å se værobservasjoner og -varsler.

For å forandre kartet kan du klikke på den grønne knappen med svart kryss for å zoome inn, på den grønne knappen med strek for å zoome ut, eller på de grønne pilene for å se tilstøtende kart.


METAR-TAF: